createdAt,value
2022-12-17T00:01:18.258Z,-0.48
2022-12-17T00:04:04.107Z,-0.55
2022-12-17T00:06:49.323Z,-0.57
2022-12-17T00:09:34.869Z,-0.54
2022-12-17T00:12:19.860Z,-0.56
2022-12-17T00:15:06.210Z,-0.56
2022-12-17T00:17:51.643Z,-0.67
2022-12-17T00:20:36.871Z,-0.61
2022-12-17T00:23:23.396Z,-0.50
2022-12-17T00:26:09.311Z,-0.45
2022-12-17T00:28:55.043Z,-0.54
2022-12-17T00:31:44.265Z,-0.59
2022-12-17T00:34:29.387Z,-0.63
2022-12-17T00:37:14.537Z,-0.56
2022-12-17T00:39:59.790Z,-0.55
2022-12-17T00:42:45.118Z,-0.59
2022-12-17T00:45:30.474Z,-0.52
2022-12-17T00:48:16.998Z,-0.54
2022-12-17T00:51:02.328Z,-0.54
2022-12-17T00:53:47.519Z,-0.49
2022-12-17T00:56:32.746Z,-0.53
2022-12-17T00:59:18.128Z,-0.54
2022-12-17T01:02:08.794Z,-0.58
2022-12-17T01:04:55.205Z,-0.53
2022-12-17T01:07:42.445Z,-0.59
2022-12-17T01:10:27.630Z,-0.56
2022-12-17T01:13:12.806Z,-0.55
2022-12-17T01:15:58.229Z,-0.52
2022-12-17T01:18:43.391Z,-0.61
2022-12-17T01:21:30.064Z,-0.56
2022-12-17T01:24:11.469Z,-0.59
2022-12-17T01:26:56.774Z,-0.48
2022-12-17T01:29:41.930Z,-0.60
2022-12-17T01:32:27.115Z,-0.52
2022-12-17T01:35:12.467Z,-0.62
2022-12-17T01:37:58.898Z,-0.73
2022-12-17T01:40:44.111Z,-0.78
2022-12-17T01:43:30.666Z,-0.65
2022-12-17T01:46:16.481Z,-0.66
2022-12-17T01:49:04.016Z,-0.57
2022-12-17T01:51:49.208Z,-0.56
2022-12-17T01:54:36.226Z,-0.59
2022-12-17T01:57:22.620Z,-0.56
2022-12-17T02:00:10.019Z,-0.57
2022-12-17T02:02:55.258Z,-0.54
2022-12-17T02:05:45.281Z,-0.55
2022-12-17T02:08:38.738Z,-0.57
2022-12-17T02:11:32.100Z,-0.59
2022-12-17T02:14:27.371Z,-0.59
2022-12-17T02:17:15.618Z,-0.56
2022-12-17T02:20:05.587Z,-0.58
2022-12-17T02:23:00.371Z,-0.58
2022-12-17T02:25:52.996Z,-0.52
2022-12-17T02:28:39.325Z,-0.51
2022-12-17T02:31:24.608Z,-0.57
2022-12-17T02:34:12.678Z,-0.54
2022-12-17T02:36:58.046Z,-0.56
2022-12-17T02:39:43.267Z,-0.51
2022-12-17T02:42:37.886Z,-0.53
2022-12-17T02:45:25.778Z,-0.50
2022-12-17T02:48:25.476Z,-0.60
2022-12-17T02:51:10.830Z,-0.57
2022-12-17T02:54:01.026Z,-0.58
2022-12-17T02:56:46.315Z,-0.57
2022-12-17T02:59:31.526Z,-0.61
2022-12-17T03:02:18.080Z,-0.54
2022-12-17T03:05:06.626Z,-0.64
2022-12-17T03:08:04.678Z,-0.73
2022-12-17T03:10:50.045Z,-0.76
2022-12-17T03:13:40.889Z,-0.83
2022-12-17T03:16:31.477Z,-0.58
2022-12-17T03:19:22.593Z,-0.55
2022-12-17T03:22:07.750Z,-0.56
2022-12-17T03:24:53.209Z,-0.60
2022-12-17T03:27:38.376Z,-0.60
2022-12-17T03:30:24.315Z,-0.59
2022-12-17T03:33:09.550Z,-0.56
2022-12-17T03:35:55.935Z,-0.62
2022-12-17T03:38:41.340Z,-0.58
2022-12-17T03:41:26.595Z,-0.57
2022-12-17T03:44:11.666Z,-0.55
2022-12-17T03:46:56.672Z,-0.52
2022-12-17T03:49:41.807Z,-0.57
2022-12-17T03:52:28.518Z,-0.60
2022-12-17T03:55:12.898Z,-0.54
2022-12-17T03:57:58.314Z,-0.58
2022-12-17T04:00:43.482Z,-0.59
2022-12-17T04:03:28.810Z,-0.66
2022-12-17T04:06:14.078Z,-0.55
2022-12-17T04:09:00.670Z,-0.65
2022-12-17T04:11:45.854Z,-0.58
2022-12-17T04:14:31.085Z,-0.52
2022-12-17T04:17:16.411Z,-0.54
2022-12-17T04:20:01.546Z,-0.59
2022-12-17T04:22:46.880Z,-0.53
2022-12-17T04:25:33.418Z,-0.52
2022-12-17T04:28:18.575Z,-0.51
2022-12-17T04:31:03.922Z,-0.51
2022-12-17T04:33:49.170Z,-0.53
2022-12-17T04:36:34.355Z,-0.44
2022-12-17T04:39:19.526Z,-0.48
2022-12-17T04:42:05.959Z,-0.51
2022-12-17T04:44:51.198Z,-0.49
2022-12-17T04:47:36.327Z,-0.53
2022-12-17T04:50:21.582Z,-0.48
2022-12-17T04:53:06.587Z,-0.54
2022-12-17T04:55:51.846Z,-0.58
2022-12-17T04:58:38.462Z,-0.57
2022-12-17T05:01:23.931Z,-0.59
2022-12-17T05:04:09.046Z,-0.60
2022-12-17T05:06:54.211Z,-0.65
2022-12-17T05:09:39.332Z,-0.66
2022-12-17T05:12:24.587Z,-0.71
2022-12-17T05:15:10.886Z,-0.65
2022-12-17T05:17:56.239Z,-0.72
2022-12-17T05:20:40.732Z,-0.72
2022-12-17T05:23:26.467Z,-0.69
2022-12-17T05:26:16.263Z,-0.74
2022-12-17T05:29:01.545Z,-0.76
2022-12-17T05:31:47.919Z,-0.84
2022-12-17T05:34:33.154Z,-0.73
2022-12-17T05:37:18.327Z,-0.79
2022-12-17T05:40:07.797Z,-0.82
2022-12-17T05:42:55.786Z,-0.88
2022-12-17T05:45:41.063Z,-0.92
2022-12-17T05:48:27.617Z,-0.89
2022-12-17T05:51:12.867Z,-0.89
2022-12-17T05:53:58.034Z,-0.90
2022-12-17T05:56:43.348Z,-0.94
2022-12-17T05:59:28.544Z,-0.98
2022-12-17T06:02:14.396Z,-0.97
2022-12-17T06:05:02.514Z,-1.01
2022-12-17T06:07:48.219Z,-1.02
2022-12-17T06:10:33.590Z,-0.96
2022-12-17T06:13:18.871Z,-0.99
2022-12-17T06:16:07.038Z,-1.00
2022-12-17T06:18:52.326Z,-1.03
2022-12-17T06:21:38.861Z,-1.05
2022-12-17T06:24:24.538Z,-1.07
2022-12-17T06:27:09.648Z,-1.08
2022-12-17T06:29:54.803Z,-1.08
2022-12-17T06:32:41.516Z,-1.09
2022-12-17T06:35:27.516Z,-1.07
2022-12-17T06:38:17.082Z,-1.09
2022-12-17T06:41:02.249Z,-1.11
2022-12-17T06:43:47.526Z,-1.10
2022-12-17T06:46:44.190Z,-1.12
2022-12-17T06:49:29.208Z,-1.15
2022-12-17T06:52:14.357Z,-1.12
2022-12-17T06:55:00.911Z,-1.15
2022-12-17T06:57:50.170Z,-1.19
2022-12-17T07:00:35.510Z,-1.16
2022-12-17T07:03:20.807Z,-1.20
2022-12-17T07:06:06.028Z,-1.21
2022-12-17T07:08:51.209Z,-1.23
2022-12-17T07:11:38.860Z,-1.21
2022-12-17T07:14:24.272Z,-1.23
2022-12-17T07:17:09.520Z,-1.25
2022-12-17T07:19:54.708Z,-1.31
2022-12-17T07:22:39.896Z,-1.31
2022-12-17T07:25:25.597Z,-1.34
2022-12-17T07:28:15.154Z,-1.41
2022-12-17T07:31:00.442Z,-1.39
2022-12-17T07:33:45.680Z,-1.43
2022-12-17T07:36:30.075Z,-1.46
2022-12-17T07:39:15.379Z,-1.42
2022-12-17T07:42:00.626Z,-1.43
2022-12-17T07:44:46.843Z,-1.47
2022-12-17T07:47:32.000Z,-1.50
2022-12-17T07:50:17.262Z,-1.45
2022-12-17T07:53:02.471Z,-1.47
2022-12-17T07:55:47.672Z,-1.48
2022-12-17T07:58:33.016Z,-1.48
2022-12-17T08:01:19.969Z,-1.51
2022-12-17T08:04:05.158Z,-1.50
2022-12-17T08:06:50.368Z,-1.57
2022-12-17T08:09:35.496Z,-1.51
2022-12-17T08:12:20.866Z,-1.48
2022-12-17T08:15:06.030Z,-1.47
2022-12-17T08:17:52.568Z,-1.47
2022-12-17T08:20:37.876Z,-1.38
2022-12-17T08:23:23.766Z,-1.38
2022-12-17T08:26:17.386Z,-1.39
2022-12-17T08:29:02.775Z,-1.26
2022-12-17T08:31:48.049Z,-1.24
2022-12-17T08:34:34.488Z,-1.21
2022-12-17T08:37:19.892Z,-1.09
2022-12-17T08:40:05.153Z,-1.01
2022-12-17T08:42:50.507Z,-0.99
2022-12-17T08:45:35.818Z,-0.94
2022-12-17T08:48:22.022Z,-0.85
2022-12-17T08:51:08.382Z,-0.85
2022-12-17T08:53:53.578Z,-0.80
2022-12-17T08:56:38.785Z,-0.82
2022-12-17T08:59:23.923Z,-0.82
2022-12-17T09:02:09.376Z,-0.92
2022-12-17T09:05:03.002Z,-0.96
2022-12-17T09:07:49.544Z,-0.88
2022-12-17T09:10:34.762Z,-0.84
2022-12-17T09:13:20.532Z,-0.82
2022-12-17T09:16:10.042Z,-0.88
2022-12-17T09:18:55.295Z,-0.86
2022-12-17T09:21:40.503Z,-0.87
2022-12-17T09:24:28.008Z,-0.85
2022-12-17T09:27:13.183Z,-0.98
2022-12-17T09:29:58.446Z,-0.98
2022-12-17T09:32:43.667Z,-0.99
2022-12-17T09:35:28.951Z,-0.91
2022-12-17T09:38:14.690Z,-0.99
2022-12-17T09:41:05.095Z,-0.95
2022-12-17T09:43:58.883Z,-1.00
2022-12-17T09:46:48.594Z,-0.92
2022-12-17T09:49:36.837Z,-0.86
2022-12-17T09:52:26.371Z,-0.80
2022-12-17T09:55:11.506Z,-0.80
2022-12-17T09:57:57.944Z,-0.79
2022-12-17T10:00:44.547Z,-0.70
2022-12-17T10:03:31.905Z,-0.79
2022-12-17T10:06:22.796Z,-0.72
2022-12-17T10:09:12.621Z,-0.74
2022-12-17T10:11:57.839Z,-0.74
2022-12-17T10:14:44.356Z,-0.68
2022-12-17T10:17:33.416Z,-0.69
2022-12-17T10:20:18.602Z,-0.61
2022-12-17T10:23:05.523Z,-0.62
2022-12-17T10:25:50.751Z,-0.62
2022-12-17T10:28:37.176Z,-0.59
2022-12-17T10:31:28.605Z,-0.47
2022-12-17T10:34:15.090Z,-0.43
2022-12-17T10:37:03.757Z,-0.49
2022-12-17T10:39:49.011Z,-0.46
2022-12-17T10:42:38.430Z,-0.43
2022-12-17T10:45:38.494Z,-0.33
2022-12-17T10:48:36.072Z,-0.26
2022-12-17T10:51:17.930Z,-0.26
2022-12-17T10:54:07.799Z,-0.29
2022-12-17T10:56:52.630Z,-0.20
2022-12-17T10:59:49.060Z,-0.24
2022-12-17T11:02:35.899Z,-0.24
2022-12-17T11:05:28.515Z,-0.06
2022-12-17T11:08:13.616Z,-0.15
2022-12-17T11:10:59.973Z,-0.02
2022-12-17T11:13:49.297Z,0.03
2022-12-17T11:16:39.559Z,-0.01
2022-12-17T11:19:37.080Z,0.11
2022-12-17T11:22:26.182Z,0.17
2022-12-17T11:25:26.395Z,0.21
2022-12-17T11:28:17.622Z,0.17
2022-12-17T11:31:07.051Z,0.28
2022-12-17T11:33:55.026Z,0.37
2022-12-17T11:36:45.396Z,0.31
2022-12-17T11:39:35.938Z,0.41
2022-12-17T11:42:25.043Z,0.43
2022-12-17T11:45:14.262Z,0.52
2022-12-17T11:48:04.460Z,0.43
2022-12-17T11:50:54.282Z,0.48
2022-12-17T11:53:53.227Z,0.51
2022-12-17T11:56:43.613Z,0.55
2022-12-17T11:59:34.747Z,0.52
2022-12-17T12:02:40.014Z,0.52
2022-12-17T12:05:35.959Z,0.63
2022-12-17T12:08:24.554Z,0.55
2022-12-17T12:11:16.683Z,0.58
2022-12-17T12:14:06.782Z,0.46
2022-12-17T12:16:54.775Z,0.64
2022-12-17T12:19:45.214Z,0.65
2022-12-17T12:22:35.560Z,0.68
2022-12-17T12:25:33.901Z,0.73
2022-12-17T12:28:25.235Z,0.76
2022-12-17T12:31:16.844Z,0.81
2022-12-17T12:34:07.139Z,0.87
2022-12-17T12:36:53.143Z,0.73
2022-12-17T12:39:42.825Z,0.73
2022-12-17T12:42:31.687Z,0.90
2022-12-17T12:45:21.278Z,0.89
2022-12-17T12:48:13.686Z,0.93
2022-12-17T12:51:09.174Z,0.93
2022-12-17T12:53:54.426Z,0.89
2022-12-17T12:56:47.253Z,1.01
2022-12-17T12:59:43.444Z,0.97
2022-12-17T13:02:36.773Z,0.95
2022-12-17T13:05:23.873Z,0.88
2022-12-17T13:08:02.782Z,0.94
2022-12-17T13:10:32.503Z,0.94
2022-12-17T13:13:01.678Z,1.02
2022-12-17T13:15:36.084Z,1.04
2022-12-17T13:18:16.992Z,0.96
2022-12-17T13:20:58.568Z,0.87
2022-12-17T13:23:34.882Z,1.02
2022-12-17T13:26:22.171Z,1.06
2022-12-17T13:29:04.946Z,1.09
2022-12-17T13:31:44.894Z,1.06
2022-12-17T13:34:18.058Z,1.06
2022-12-17T13:36:52.039Z,1.12
2022-12-17T13:39:38.952Z,1.02
2022-12-17T13:42:06.595Z,1.08
2022-12-17T13:44:39.858Z,0.98
2022-12-17T13:47:20.953Z,1.08
2022-12-17T13:50:24.547Z,1.01
2022-12-17T13:52:40.651Z,1.00
2022-12-17T13:55:10.546Z,1.02
2022-12-17T13:57:38.805Z,1.08
2022-12-17T14:00:07.326Z,0.93
2022-12-17T14:02:38.940Z,0.98
2022-12-17T14:05:09.111Z,0.89
2022-12-17T14:07:40.816Z,0.92
2022-12-17T14:10:15.906Z,0.88
2022-12-17T14:12:42.527Z,0.86
2022-12-17T14:15:21.302Z,0.84
2022-12-17T14:17:49.856Z,0.79
2022-12-17T14:20:19.453Z,0.79
2022-12-17T14:22:51.870Z,0.75
2022-12-17T14:25:21.474Z,0.78
2022-12-17T14:27:55.086Z,0.70
2022-12-17T14:30:24.762Z,0.74
2022-12-17T14:32:52.389Z,0.70
2022-12-17T14:35:28.383Z,0.68
2022-12-17T14:37:57.502Z,0.70
2022-12-17T14:40:26.369Z,0.70
2022-12-17T14:42:59.113Z,0.62
2022-12-17T14:45:27.828Z,0.61
2022-12-17T14:47:56.707Z,0.62
2022-12-17T14:50:30.879Z,0.53
2022-12-17T14:53:00.852Z,0.61
2022-12-17T14:55:34.792Z,0.52
2022-12-17T14:58:20.346Z,0.49
2022-12-17T15:00:51.390Z,0.44
2022-12-17T15:03:22.072Z,0.49
2022-12-17T15:05:53.151Z,0.51
2022-12-17T15:08:22.310Z,0.45
2022-12-17T15:10:49.982Z,0.36
2022-12-17T15:13:17.432Z,0.46
2022-12-17T15:15:44.940Z,0.31
2022-12-17T15:18:12.483Z,0.17
2022-12-17T15:20:40.122Z,0.20
2022-12-17T15:23:12.896Z,0.13
2022-12-17T15:25:46.574Z,0.11
2022-12-17T15:28:14.430Z,0.03
2022-12-17T15:30:48.266Z,0.14
2022-12-17T15:33:15.949Z,0.11
2022-12-17T15:35:43.774Z,0.10
2022-12-17T15:38:12.106Z,0.09
2022-12-17T15:40:41.345Z,0.20
2022-12-17T15:43:12.816Z,0.03
2022-12-17T15:45:41.486Z,0.06
2022-12-17T15:48:09.388Z,-0.10
2022-12-17T15:50:37.317Z,0.01
2022-12-17T15:53:04.889Z,-0.02
2022-12-17T15:55:33.125Z,-0.06
2022-12-17T15:58:05.313Z,-0.14
2022-12-17T16:00:32.782Z,-0.06
2022-12-17T16:03:01.366Z,-0.09
2022-12-17T16:05:29.060Z,-0.05
2022-12-17T16:07:58.828Z,0.02
2022-12-17T16:10:26.500Z,0.02
2022-12-17T16:12:53.966Z,-0.03
2022-12-17T16:15:22.943Z,-0.15
2022-12-17T16:17:50.389Z,-0.17
2022-12-17T16:20:18.172Z,-0.17
2022-12-17T16:22:45.660Z,-0.01
2022-12-17T16:25:13.417Z,-0.12
2022-12-17T16:27:40.866Z,0.03
2022-12-17T16:30:10.963Z,-0.02
2022-12-17T16:32:39.774Z,0.05
2022-12-17T16:35:07.891Z,0.03
2022-12-17T16:37:35.344Z,-0.22
2022-12-17T16:40:02.942Z,-0.16
2022-12-17T16:42:30.581Z,-0.01
2022-12-17T16:44:58.057Z,0.25
2022-12-17T16:47:25.721Z,0.22
2022-12-17T16:49:54.527Z,0.28
2022-12-17T16:52:22.036Z,0.28
2022-12-17T16:54:49.496Z,0.23
2022-12-17T16:57:16.934Z,0.19
2022-12-17T16:59:44.403Z,0.06
2022-12-17T17:02:14.373Z,-0.08
2022-12-17T17:04:41.926Z,0.21
2022-12-17T17:07:10.714Z,0.07
2022-12-17T17:09:38.691Z,-0.12
2022-12-17T17:12:08.346Z,-0.25
2022-12-17T17:14:36.049Z,-0.23
2022-12-17T17:17:03.519Z,-0.46
2022-12-17T17:19:30.972Z,-0.37
2022-12-17T17:21:58.430Z,-0.50
2022-12-17T17:24:27.231Z,-0.35
2022-12-17T17:26:55.865Z,-0.23
2022-12-17T17:29:23.343Z,-0.24
2022-12-17T17:32:09.740Z,-0.40
2022-12-17T17:34:39.478Z,-0.30
2022-12-17T17:37:06.951Z,-0.27
2022-12-17T17:39:35.742Z,-0.32
2022-12-17T17:42:03.886Z,-0.21
2022-12-17T17:44:31.362Z,-0.34
2022-12-17T17:46:58.876Z,-0.10
2022-12-17T17:49:26.433Z,-0.28
2022-12-17T17:52:10.715Z,-0.16
2022-12-17T17:54:40.353Z,-0.21
2022-12-17T17:57:08.149Z,-0.29
2022-12-17T17:59:35.625Z,-0.15
2022-12-17T18:02:03.890Z,-0.27
2022-12-17T18:04:32.346Z,-0.27
2022-12-17T18:07:24.251Z,-0.43
2022-12-17T18:09:48.598Z,-0.62
2022-12-17T18:12:33.950Z,-0.72
2022-12-17T18:15:18.415Z,-0.63
2022-12-17T18:17:48.038Z,-0.52
2022-12-17T18:20:15.758Z,-0.54
2022-12-17T18:22:43.452Z,-0.46
2022-12-17T18:25:12.255Z,-0.65
2022-12-17T18:27:39.757Z,-0.68
2022-12-17T18:30:08.078Z,-0.49
2022-12-17T18:32:35.580Z,-0.56
2022-12-17T18:35:03.082Z,-0.43
2022-12-17T18:37:31.012Z,-0.51
2022-12-17T18:39:58.485Z,-0.64
2022-12-17T18:42:44.840Z,-0.37
2022-12-17T18:45:13.476Z,-0.46
2022-12-17T18:47:42.376Z,-0.50
2022-12-17T18:50:10.735Z,-0.49
2022-12-17T18:52:38.203Z,-0.52
2022-12-17T18:55:06.589Z,-0.56
2022-12-17T18:57:35.459Z,-0.51
2022-12-17T19:00:03.784Z,-0.56
2022-12-17T19:02:31.308Z,-0.59
2022-12-17T19:04:58.839Z,-0.71
2022-12-17T19:07:26.318Z,-0.87
2022-12-17T19:09:53.763Z,-0.79
2022-12-17T19:12:21.207Z,-0.74
2022-12-17T19:14:49.998Z,-0.83
2022-12-17T19:17:17.555Z,-0.83
2022-12-17T19:19:44.982Z,-0.80
2022-12-17T19:22:12.482Z,-0.86
2022-12-17T19:24:39.926Z,-0.74
2022-12-17T19:27:07.367Z,-0.79
2022-12-17T19:29:34.856Z,-0.94
2022-12-17T19:32:03.845Z,-0.93
2022-12-17T19:34:32.276Z,-1.03
2022-12-17T19:36:59.732Z,-1.07
2022-12-17T19:39:27.230Z,-0.98
2022-12-17T19:41:54.687Z,-0.83
2022-12-17T19:44:22.491Z,-0.87
2022-12-17T19:46:49.937Z,-0.86
2022-12-17T19:49:18.788Z,-0.81
2022-12-17T19:51:46.282Z,-0.85
2022-12-17T19:54:14.937Z,-0.71
2022-12-17T19:56:43.822Z,-0.72
2022-12-17T19:59:12.516Z,-0.69
2022-12-17T20:01:43.775Z,-0.79
2022-12-17T20:04:12.680Z,-0.73
2022-12-17T20:06:41.460Z,-0.76
2022-12-17T20:09:08.919Z,-0.85
2022-12-17T20:11:36.932Z,-0.93
2022-12-17T20:14:07.217Z,-1.11
2022-12-17T20:16:36.338Z,-1.08
2022-12-17T20:19:06.700Z,-1.18
2022-12-17T20:21:34.450Z,-1.12
2022-12-17T20:24:03.381Z,-1.03
2022-12-17T20:26:30.989Z,-0.96
2022-12-17T20:28:59.151Z,-0.95
2022-12-17T20:31:26.755Z,-0.89
2022-12-17T20:33:54.247Z,-0.98
2022-12-17T20:36:22.858Z,-1.00
2022-12-17T20:38:50.511Z,-0.96
2022-12-17T20:41:20.563Z,-0.92
2022-12-17T20:43:48.480Z,-0.91
2022-12-17T20:46:16.431Z,-0.89
2022-12-17T20:48:45.019Z,-0.87
2022-12-17T20:51:14.032Z,-0.87
2022-12-17T20:53:41.586Z,-0.90
2022-12-17T20:56:11.484Z,-1.00
2022-12-17T20:58:41.334Z,-0.95
2022-12-17T21:01:11.720Z,-1.08
2022-12-17T21:03:39.607Z,-1.08
2022-12-17T21:06:09.899Z,-1.00
2022-12-17T21:08:38.223Z,-1.09
2022-12-17T21:11:06.808Z,-1.02
2022-12-17T21:13:34.871Z,-0.97
2022-12-17T21:16:06.105Z,-0.99
2022-12-17T21:18:34.451Z,-1.20
2022-12-17T21:21:03.684Z,-1.14
2022-12-17T21:23:31.773Z,-1.17
2022-12-17T21:26:04.718Z,-1.24
2022-12-17T21:28:41.454Z,-1.25
2022-12-17T21:31:17.947Z,-1.19
2022-12-17T21:33:45.996Z,-1.22
2022-12-17T21:36:14.088Z,-1.19
2022-12-17T21:38:42.498Z,-1.24
2022-12-17T21:41:11.917Z,-1.25
2022-12-17T21:43:40.324Z,-1.26
2022-12-17T21:46:08.575Z,-1.43
2022-12-17T21:48:41.903Z,-1.36
2022-12-17T21:51:12.846Z,-1.47
2022-12-17T21:53:43.392Z,-1.48
2022-12-17T21:56:12.962Z,-1.36
2022-12-17T21:58:41.823Z,-1.44
2022-12-17T22:01:18.215Z,-1.36
2022-12-17T22:03:48.772Z,-1.50
2022-12-17T22:06:24.855Z,-1.50
2022-12-17T22:09:01.815Z,-1.67
2022-12-17T22:11:38.662Z,-1.77
2022-12-17T22:14:16.976Z,-1.81
2022-12-17T22:16:48.871Z,-1.73
2022-12-17T22:19:22.225Z,-1.63
2022-12-17T22:21:50.958Z,-1.87
2022-12-17T22:24:21.042Z,-1.95
2022-12-17T22:26:49.483Z,-2.08
2022-12-17T22:29:37.324Z,-1.93
2022-12-17T22:32:23.875Z,-1.80
2022-12-17T22:35:59.786Z,-1.74
2022-12-17T22:42:11.705Z,-1.70
2022-12-17T22:44:31.624Z,-1.75
2022-12-17T22:44:44.417Z,-2.01
2022-12-17T22:46:17.882Z,-2.09
2022-12-17T22:48:45.470Z,-2.18
2022-12-17T22:51:23.604Z,-2.07
2022-12-17T22:53:57.608Z,-1.99
2022-12-17T22:56:42.854Z,-2.08
2022-12-17T22:59:16.186Z,-1.95
2022-12-17T23:01:43.797Z,-1.98
2022-12-17T23:04:13.233Z,-2.06
2022-12-17T23:06:42.676Z,-2.14
2022-12-17T23:09:10.200Z,-2.12
2022-12-17T23:11:37.685Z,-2.22
2022-12-17T23:14:07.567Z,-2.20
2022-12-17T23:16:35.067Z,-2.16
2022-12-17T23:19:03.175Z,-2.10
2022-12-17T23:21:30.659Z,-2.13
2022-12-17T23:23:59.723Z,-2.23
2022-12-17T23:26:28.920Z,-2.26
2022-12-17T23:28:58.311Z,-2.31
2022-12-17T23:31:27.179Z,-2.18
2022-12-17T23:33:54.777Z,-2.19
2022-12-17T23:36:24.050Z,-2.33
2022-12-17T23:38:52.263Z,-2.31
2022-12-17T23:41:23.211Z,-2.31
2022-12-17T23:43:51.127Z,-2.50
2022-12-17T23:46:20.531Z,-2.52
2022-12-17T23:48:48.920Z,-2.47
2022-12-17T23:51:18.638Z,-2.35
2022-12-17T23:53:46.263Z,-2.26
2022-12-17T23:56:15.615Z,-2.38
2022-12-17T23:58:45.752Z,-2.42
